Time;durP1;ratioP1;P1;durP2;ratioP2;P2;SDS_P1;SDS_P2;PMS_P1;PMS_P2;Temp;Humidity;BMP_temperature;BMP_pressure;BME280_temperature;BME280_humidity;BME280_pressure;Samples;Min_cycle;Max_cycle;Signal;HPM_P1;HPM_P2
2023/07/31 00:00:00;;;;;;;1.98;0.98;;;15.40;99.90;;;;;;5089473;28;20110;-72
2023/07/31 00:02:26;;;;;;;2.30;1.02;;;15.40;99.90;;;;;;5094845;28;20126;-73
2023/07/31 00:04:51;;;;;;;4.05;1.80;;;15.50;99.90;;;;;;5084449;28;20032;-73
2023/07/31 00:07:18;;;;;;;6.45;2.50;;;15.50;99.90;;;;;;5082270;28;20021;-72
2023/07/31 00:09:43;;;;;;;7.63;3.38;;;15.50;99.90;;;;;;5084842;28;20016;-73
2023/07/31 00:12:09;;;;;;;10.63;4.47;;;15.60;99.90;;;;;;5090934;28;20501;-72
2023/07/31 00:14:34;;;;;;;12.63;4.88;;;15.60;99.90;;;;;;5079720;28;20040;-72
2023/07/31 00:17:00;;;;;;;20.60;7.47;;;15.70;99.90;;;;;;5083102;28;20032;-72
2023/07/31 00:19:25;;;;;;;22.70;8.20;;;15.70;99.90;;;;;;5081642;28;20036;-72
2023/07/31 00:21:51;;;;;;;28.48;9.70;;;15.90;99.90;;;;;;5091120;28;20027;-72
2023/07/31 00:24:16;;;;;;;33.53;10.88;;;15.90;99.90;;;;;;5074365;28;20385;-72
2023/07/31 00:26:42;;;;;;;28.48;11.55;;;16.10;99.90;;;;;;5079768;28;20031;-73
2023/07/31 00:29:07;;;;;;;40.75;12.02;;;16.10;99.90;;;;;;5080735;28;20024;-72
2023/07/31 00:31:33;;;;;;;39.25;11.55;;;16.20;99.90;;;;;;5079291;28;20024;-72
2023/07/31 00:33:59;;;;;;;29.63;11.30;;;16.30;99.90;;;;;;5095152;28;20481;-72
2023/07/31 00:36:25;;;;;;;33.47;11.40;;;16.40;99.90;;;;;;5082395;28;20111;-72
2023/07/31 00:38:50;;;;;;;29.00;11.55;;;16.40;99.90;;;;;;5103037;28;20032;-72
2023/07/31 00:41:16;;;;;;;32.38;11.30;;;16.40;99.90;;;;;;5073150;28;20036;-73
2023/07/31 00:43:41;;;;;;;37.22;11.63;;;16.40;99.90;;;;;;5072983;28;20033;-73
2023/07/31 00:46:07;;;;;;;34.30;10.32;;;16.50;99.90;;;;;;5095007;28;20053;-73
2023/07/31 00:48:33;;;;;;;28.25;9.93;;;16.50;99.90;;;;;;5090774;28;20038;-72
2023/07/31 00:51:00;;;;;;;27.17;10.40;;;16.50;99.90;;;;;;5072786;28;20032;-72
2023/07/31 00:53:27;;;;;;;30.83;9.50;;;16.50;99.90;;;;;;5084269;28;20112;-72
2023/07/31 00:55:53;;;;;;;28.63;9.50;;;16.50;99.90;;;;;;5096947;28;20040;-73
2023/07/31 00:58:18;;;;;;;28.17;9.48;;;16.50;99.90;;;;;;5088492;28;20112;-73
2023/07/31 01:00:44;;;;;;;27.63;9.00;;;16.50;99.90;;;;;;5089957;28;20552;-73
2023/07/31 01:03:10;;;;;;;25.73;9.60;;;16.50;99.90;;;;;;5086920;28;20036;-72
2023/07/31 01:06:12;;;;;;;28.83;9.27;;;16.60;99.90;;;;;;5088711;28;20111;-72
2023/07/31 01:08:44;;;;;;;25.50;8.73;;;16.50;99.90;;;;;;5072863;28;20032;-72
2023/07/31 01:11:21;;;;;;;20.50;7.32;;;16.50;99.90;;;;;;5078567;28;20461;-72
2023/07/31 01:13:47;;;;;;;21.98;8.13;;;16.50;99.90;;;;;;5071858;28;20029;-73
2023/07/31 01:16:13;;;;;;;31.45;8.32;;;16.50;99.90;;;;;;5078659;28;20333;-73
2023/07/31 01:18:38;;;;;;;28.95;8.15;;;16.60;99.90;;;;;;5093062;28;20081;-73
2023/07/31 01:21:34;;;;;;;25.00;7.85;;;16.50;99.90;;;;;;5096601;28;20560;-73
2023/07/31 01:24:14;;;;;;;27.80;8.65;;;16.50;99.90;;;;;;5042950;28;20036;-72
2023/07/31 01:26:46;;;;;;;26.83;7.82;;;16.50;99.90;;;;;;5076659;28;20101;-72
2023/07/31 01:29:34;;;;;;;19.47;7.80;;;16.60;99.90;;;;;;5103292;28;20055;-72
2023/07/31 01:32:03;;;;;;;30.65;8.38;;;16.60;99.90;;;;;;5099287;28;20023;-72
2023/07/31 01:34:30;;;;;;;24.17;9.60;;;16.50;99.90;;;;;;5104928;28;20443;-72
2023/07/31 01:36:58;;;;;;;20.77;7.90;;;16.50;99.90;;;;;;5078906;28;20024;-72
2023/07/31 01:39:23;;;;;;;23.48;7.95;;;16.50;99.90;;;;;;5077647;28;20023;-72
2023/07/31 01:41:49;;;;;;;24.27;8.52;;;16.50;99.90;;;;;;5071668;28;20364;-73
2023/07/31 01:44:14;;;;;;;20.92;6.82;;;16.60;99.90;;;;;;5056738;28;20021;-72
2023/07/31 01:46:40;;;;;;;25.50;8.07;;;16.50;99.90;;;;;;5089803;28;20028;-73
2023/07/31 01:49:06;;;;;;;24.65;8.02;;;16.50;99.90;;;;;;5074701;28;20038;-72
2023/07/31 01:51:34;;;;;;;25.13;7.47;;;16.50;99.90;;;;;;5095667;28;20436;-72
2023/07/31 01:54:00;;;;;;;20.80;7.25;;;16.60;99.90;;;;;;5073642;28;20048;-72
2023/07/31 01:56:25;;;;;;;20.13;5.65;;;16.60;99.90;;;;;;5072738;28;20017;-72
2023/07/31 01:58:51;;;;;;;21.20;7.10;;;16.50;99.90;;;;;;5077458;28;20127;-71
2023/07/31 02:01:16;;;;;;;24.73;7.22;;;16.60;99.90;;;;;;5091628;28;20035;-71
2023/07/31 02:03:42;;;;;;;22.38;7.13;;;16.60;99.90;;;;;;5087099;28;20419;-71
2023/07/31 02:06:08;;;;;;;18.48;7.25;;;16.60;99.90;;;;;;5081754;28;20031;-71
2023/07/31 02:08:33;;;;;;;19.80;7.07;;;16.60;99.90;;;;;;5096213;28;20035;-71
2023/07/31 02:10:59;;;;;;;21.58;7.78;;;16.50;99.90;;;;;;5088873;28;20020;-71
2023/07/31 02:13:24;;;;;;;19.85;6.93;;;16.60;99.90;;;;;;5085540;28;20108;-71
2023/07/31 02:15:50;;;;;;;23.45;7.57;;;16.60;99.90;;;;;;5086472;28;20399;-71
2023/07/31 02:18:16;;;;;;;21.85;8.65;;;16.60;99.90;;;;;;5081520;28;20028;-71
2023/07/31 02:20:41;;;;;;;23.95;8.43;;;16.60;99.90;;;;;;5076241;28;20146;-72
2023/07/31 02:23:07;;;;;;;29.55;8.30;;;16.60;99.90;;;;;;5083907;28;20028;-71
2023/07/31 02:25:32;;;;;;;22.73;8.88;;;16.50;99.90;;;;;;5098009;28;20471;-71
2023/07/31 02:27:58;;;;;;;24.02;7.97;;;16.50;99.90;;;;;;5091679;28;20020;-71
2023/07/31 02:30:24;;;;;;;20.63;8.10;;;16.50;99.90;;;;;;5068237;28;20031;-71
2023/07/31 02:32:49;;;;;;;22.92;8.10;;;16.50;99.90;;;;;;5100975;28;20062;-71
2023/07/31 02:35:15;;;;;;;23.77;8.00;;;16.50;99.90;;;;;;5090813;28;20111;-71
2023/07/31 02:37:41;;;;;;;21.13;8.15;;;16.50;99.90;;;;;;5088447;28;20025;-71
2023/07/31 02:40:07;;;;;;;25.88;7.75;;;16.60;99.90;;;;;;5090661;28;20079;-71
2023/07/31 02:42:33;;;;;;;21.90;6.97;;;16.50;99.90;;;;;;5095044;28;20436;-71
2023/07/31 02:44:58;;;;;;;21.50;7.03;;;16.50;99.90;;;;;;5070568;28;20055;-71
2023/07/31 02:47:24;;;;;;;26.90;7.70;;;16.50;99.90;;;;;;5084079;28;20048;-71
2023/07/31 02:49:50;;;;;;;20.80;6.97;;;16.60;99.90;;;;;;5096096;28;20046;-71
2023/07/31 02:52:15;;;;;;;19.80;6.47;;;16.60;99.90;;;;;;5092443;28;20120;-71
2023/07/31 02:54:41;;;;;;;21.90;6.63;;;16.50;99.90;;;;;;5089398;28;20487;-71
2023/07/31 02:57:06;;;;;;;16.83;6.30;;;16.60;99.90;;;;;;5091435;28;20099;-71
2023/07/31 02:59:32;;;;;;;18.45;6.50;;;16.60;99.90;;;;;;5080450;28;20039;-71
2023/07/31 03:01:57;;;;;;;23.40;6.80;;;16.50;99.90;;;;;;5084196;28;20044;-71
2023/07/31 03:04:23;;;;;;;24.50;6.82;;;16.50;99.90;;;;;;5110388;28;20031;-71
2023/07/31 03:06:48;;;;;;;21.88;7.05;;;16.50;99.90;;;;;;5098720;28;20027;-71
2023/07/31 03:09:14;;;;;;;27.80;6.47;;;16.50;99.90;;;;;;5079208;28;20025;-71
2023/07/31 03:11:39;;;;;;;23.13;5.88;;;16.50;99.90;;;;;;5085663;28;20487;-71
2023/07/31 03:14:05;;;;;;;15.75;5.82;;;16.60;99.90;;;;;;5071205;28;20487;-71
2023/07/31 03:16:30;;;;;;;18.63;6.50;;;16.50;99.90;;;;;;5085804;28;20036;-71
2023/07/31 03:18:56;;;;;;;19.85;5.47;;;16.50;99.90;;;;;;5077291;28;20033;-71
2023/07/31 03:21:21;;;;;;;15.32;5.18;;;16.50;99.90;;;;;;5078637;28;20046;-71
2023/07/31 03:23:47;;;;;;;18.73;5.60;;;16.50;99.90;;;;;;5078216;28;20028;-72
2023/07/31 03:26:13;;;;;;;13.57;4.95;;;16.50;99.90;;;;;;5081464;28;20050;-71
2023/07/31 03:28:38;;;;;;;17.60;5.57;;;16.50;99.90;;;;;;5091244;28;20410;-71
2023/07/31 03:31:04;;;;;;;17.20;5.30;;;16.40;99.90;;;;;;5088435;28;20053;-71
2023/07/31 03:33:30;;;;;;;20.08;5.75;;;16.50;99.90;;;;;;5095160;28;20024;-71
2023/07/31 03:35:55;;;;;;;19.25;5.70;;;16.50;99.90;;;;;;5090472;28;20452;-71
2023/07/31 03:38:21;;;;;;;20.77;5.38;;;16.40;99.90;;;;;;5081937;28;20365;-71
2023/07/31 03:40:46;;;;;;;19.25;5.43;;;16.50;99.90;;;;;;5086802;28;20040;-71
2023/07/31 03:43:12;;;;;;;20.00;5.93;;;16.40;99.90;;;;;;5083049;28;20024;-71
2023/07/31 03:45:38;;;;;;;20.27;5.88;;;16.40;99.90;;;;;;5095097;28;20428;-71
2023/07/31 03:48:04;;;;;;;22.45;6.05;;;16.40;99.90;;;;;;5089710;28;20067;-71
2023/07/31 03:50:30;;;;;;;28.33;6.85;;;16.40;99.90;;;;;;5093596;28;20011;-71
2023/07/31 03:52:55;;;;;;;20.52;5.78;;;16.40;99.90;;;;;;5093776;28;20032;-71
2023/07/31 03:55:21;;;;;;;20.58;5.60;;;16.40;99.90;;;;;;5080671;28;20032;-71
2023/07/31 03:57:47;;;;;;;18.90;5.63;;;16.30;99.90;;;;;;5077181;28;20037;-71
2023/07/31 04:00:13;;;;;;;17.85;6.20;;;16.30;99.90;;;;;;5080213;28;20040;-72
2023/07/31 04:02:39;;;;;;;19.80;6.00;;;16.30;99.90;;;;;;5088372;28;20384;-73
2023/07/31 04:05:04;;;;;;;21.60;6.00;;;16.30;99.90;;;;;;5086881;28;20036;-73
2023/07/31 04:07:30;;;;;;;17.92;6.18;;;16.30;99.90;;;;;;5085962;28;20020;-73
2023/07/31 04:09:57;;;;;;;17.10;5.80;;;16.30;99.90;;;;;;5079387;28;20070;-75
2023/07/31 04:12:23;;;;;;;22.90;6.63;;;16.30;99.90;;;;;;5084172;28;20016;-73
2023/07/31 04:14:48;;;;;;;21.27;6.13;;;16.30;99.90;;;;;;5099350;28;20449;-73
2023/07/31 04:17:15;;;;;;;23.00;6.25;;;16.30;99.90;;;;;;5098550;28;20027;-73
2023/07/31 04:19:40;;;;;;;14.70;5.50;;;16.30;99.90;;;;;;5085376;28;20036;-73
2023/07/31 04:22:06;;;;;;;18.40;5.53;;;16.30;99.90;;;;;;5084711;28;20420;-73
2023/07/31 04:24:31;;;;;;;18.02;5.90;;;16.30;99.90;;;;;;5059453;28;20357;-73
2023/07/31 04:26:57;;;;;;;19.98;6.65;;;16.30;99.90;;;;;;5081455;28;20059;-73
2023/07/31 04:29:22;;;;;;;17.70;5.30;;;16.30;99.90;;;;;;5063575;28;20036;-73
2023/07/31 04:31:48;;;;;;;19.70;5.93;;;16.40;99.90;;;;;;5086164;28;20044;-73
2023/07/31 04:34:14;;;;;;;19.60;5.20;;;16.30;99.90;;;;;;5081056;28;20048;-72
2023/07/31 04:36:40;;;;;;;20.73;6.10;;;16.40;99.90;;;;;;5080393;28;20024;-72
2023/07/31 04:39:06;;;;;;;18.83;6.03;;;16.30;99.90;;;;;;5090280;28;20081;-74
2023/07/31 04:41:31;;;;;;;16.27;5.93;;;16.30;99.90;;;;;;5071544;28;20353;-73
2023/07/31 04:43:57;;;;;;;17.90;5.38;;;16.40;99.90;;;;;;5078852;28;20030;-73
2023/07/31 04:46:22;;;;;;;21.10;5.38;;;16.40;99.90;;;;;;5073267;28;20037;-73
2023/07/31 04:48:48;;;;;;;15.57;4.85;;;16.40;99.90;;;;;;5086561;28;20032;-73
2023/07/31 04:51:14;;;;;;;14.95;5.13;;;16.40;99.90;;;;;;5083819;28;20025;-72
2023/07/31 04:53:40;;;;;;;21.90;5.18;;;16.40;99.90;;;;;;5082481;28;20089;-72
2023/07/31 04:56:05;;;;;;;16.42;5.45;;;16.40;99.90;;;;;;5087168;28;20039;-73
2023/07/31 04:58:31;;;;;;;19.67;5.38;;;16.40;99.90;;;;;;5077689;28;20369;-73
2023/07/31 05:00:56;;;;;;;17.65;5.03;;;16.40;99.90;;;;;;5077592;28;20115;-73
2023/07/31 05:03:22;;;;;;;18.13;5.43;;;16.50;99.90;;;;;;5089034;28;20040;-73
2023/07/31 05:05:47;;;;;;;21.35;5.53;;;16.40;99.90;;;;;;5086175;28;20133;-73
2023/07/31 05:08:13;;;;;;;16.00;5.28;;;16.50;99.90;;;;;;5092982;28;20020;-73
2023/07/31 05:10:39;;;;;;;22.85;5.70;;;16.50;99.90;;;;;;5084285;28;20020;-73
2023/07/31 05:13:05;;;;;;;17.05;5.50;;;16.50;99.90;;;;;;5078406;28;20028;-72
2023/07/31 05:15:30;;;;;;;16.77;5.32;;;16.50;99.90;;;;;;5094196;28;20027;-73
2023/07/31 05:17:56;;;;;;;25.42;4.75;;;16.40;99.90;;;;;;5076788;28;20031;-73
2023/07/31 05:20:22;;;;;;;17.27;4.85;;;16.40;99.90;;;;;;5080316;28;20056;-73
2023/07/31 05:22:47;;;;;;;13.85;4.90;;;16.40;99.90;;;;;;5072441;28;20039;-73
2023/07/31 05:25:13;;;;;;;15.23;5.30;;;16.40;99.90;;;;;;5077465;28;20032;-73
2023/07/31 05:27:38;;;;;;;17.88;5.13;;;16.30;99.90;;;;;;5074475;28;20543;-73
2023/07/31 05:30:05;;;;;;;15.40;4.72;;;16.40;99.90;;;;;;5090850;28;20456;-72
2023/07/31 05:32:31;;;;;;;15.13;4.93;;;16.40;99.90;;;;;;5074617;28;20384;-72
2023/07/31 05:34:56;;;;;;;14.52;4.43;;;16.40;99.90;;;;;;5073605;28;20036;-73
2023/07/31 05:37:22;;;;;;;13.45;5.68;;;16.40;99.90;;;;;;5072627;28;20362;-72
2023/07/31 05:39:48;;;;;;;19.98;5.13;;;16.40;99.90;;;;;;5081114;28;20445;-73
2023/07/31 05:42:13;;;;;;;19.40;5.57;;;16.30;99.90;;;;;;5080813;28;20476;-73
2023/07/31 05:44:39;;;;;;;21.58;5.72;;;16.30;99.90;;;;;;5089505;28;20051;-72
2023/07/31 05:47:05;;;;;;;12.77;4.82;;;16.30;99.90;;;;;;5081734;28;20047;-73
2023/07/31 05:49:30;;;;;;;12.13;4.95;;;16.30;99.90;;;;;;5092240;28;20024;-73
2023/07/31 05:51:56;;;;;;;18.98;5.50;;;16.20;99.90;;;;;;5078206;28;20024;-72
2023/07/31 05:54:22;;;;;;;17.20;4.78;;;16.30;99.90;;;;;;5092445;28;20028;-72
2023/07/31 05:56:47;;;;;;;16.60;4.95;;;16.30;99.90;;;;;;5084227;28;20050;-72
2023/07/31 05:59:13;;;;;;;13.18;5.28;;;16.30;99.90;;;;;;5087205;28;20091;-72
2023/07/31 06:01:39;;;;;;;18.38;5.30;;;16.30;99.90;;;;;;5059440;28;20111;-72
2023/07/31 06:04:05;;;;;;;16.02;4.68;;;16.30;99.90;;;;;;5074309;28;20130;-72
2023/07/31 06:06:31;;;;;;;16.65;5.32;;;16.40;99.90;;;;;;5091452;28;20056;-72
2023/07/31 06:08:56;;;;;;;15.75;4.78;;;16.40;99.90;;;;;;5076537;28;20016;-72
2023/07/31 06:11:23;;;;;;;11.52;4.22;;;16.40;99.90;;;;;;5091886;28;20100;-72
2023/07/31 06:13:49;;;;;;;11.85;4.38;;;16.40;99.90;;;;;;5086655;28;22169;-72
2023/07/31 06:16:15;;;;;;;19.08;4.97;;;16.50;99.90;;;;;;5082561;28;20058;-72
2023/07/31 06:18:41;;;;;;;13.98;4.95;;;16.50;99.90;;;;;;5084100;28;20372;-72
2023/07/31 06:21:07;;;;;;;10.75;4.22;;;16.60;99.90;;;;;;5075206;28;20039;-73
2023/07/31 06:23:32;;;;;;;11.80;4.00;;;16.60;99.90;;;;;;5073782;28;20436;-72
2023/07/31 06:25:58;;;;;;;12.43;4.10;;;16.70;99.90;;;;;;5072615;28;20024;-72
2023/07/31 06:28:31;;;;;;;13.10;3.92;;;16.70;99.90;;;;;;5075906;28;20065;-72
2023/07/31 06:30:57;;;;;;;10.38;3.65;;;16.70;99.90;;;;;;5078631;28;20033;-73
2023/07/31 06:33:23;;;;;;;7.00;3.45;;;16.70;99.90;;;;;;5072454;28;20024;-73
2023/07/31 06:35:49;;;;;;;10.93;3.63;;;16.70;99.90;;;;;;5076721;28;20030;-73
2023/07/31 06:38:14;;;;;;;7.78;2.90;;;16.70;99.90;;;;;;5079050;28;20047;-73
2023/07/31 06:40:40;;;;;;;9.20;2.90;;;16.70;99.90;;;;;;5076346;28;20040;-73
2023/07/31 06:43:09;;;;;;;7.50;2.65;;;16.70;99.90;;;;;;5072426;28;20059;-73
2023/07/31 06:45:35;;;;;;;5.85;1.92;;;16.70;99.90;;;;;;5077747;28;20388;-71
2023/07/31 06:48:01;;;;;;;4.57;2.15;;;16.70;99.90;;;;;;5078681;28;20047;-71
2023/07/31 06:50:28;;;;;;;5.32;2.42;;;16.70;99.90;;;;;;5079251;28;20024;-73
2023/07/31 06:52:54;;;;;;;4.95;1.83;;;16.80;99.90;;;;;;5074413;28;20643;-74
2023/07/31 06:55:20;;;;;;;5.25;1.70;;;16.80;99.90;;;;;;5075964;28;20040;-73
2023/07/31 06:57:50;;;;;;;4.72;2.17;;;16.80;99.90;;;;;;5078065;28;20033;-74
2023/07/31 07:00:17;;;;;;;4.07;1.63;;;16.80;99.90;;;;;;5075447;28;20393;-73
2023/07/31 07:02:43;;;;;;;3.50;1.60;;;16.90;99.90;;;;;;5054488;28;20061;-73
2023/07/31 07:05:08;;;;;;;3.58;1.17;;;16.90;99.90;;;;;;5076425;28;20028;-73
2023/07/31 07:07:34;;;;;;;3.05;1.48;;;16.90;99.90;;;;;;5075358;28;20032;-73
2023/07/31 07:10:00;;;;;;;4.07;1.05;;;16.90;99.90;;;;;;5078719;28;20028;-73
2023/07/31 07:12:29;;;;;;;3.75;0.85;;;17.00;99.90;;;;;;5078211;28;20031;-71
2023/07/31 07:14:54;;;;;;;4.22;0.80;;;17.00;99.90;;;;;;5075928;28;20055;-72
2023/07/31 07:17:20;;;;;;;2.88;0.80;;;17.00;99.90;;;;;;5072140;28;20107;-72
2023/07/31 07:19:47;;;;;;;2.53;0.75;;;17.00;99.90;;;;;;5076829;28;21879;-72
2023/07/31 07:22:13;;;;;;;1.70;0.50;;;17.10;99.90;;;;;;5074465;28;20504;-73
2023/07/31 07:24:38;;;;;;;2.13;0.75;;;17.10;99.90;;;;;;5078253;28;20059;-73
2023/07/31 07:27:04;;;;;;;1.42;0.57;;;17.10;99.90;;;;;;5074843;28;20111;-73
2023/07/31 07:29:30;;;;;;;2.85;0.70;;;17.10;99.90;;;;;;5074006;28;20155;-72
2023/07/31 07:31:55;;;;;;;2.83;0.80;;;17.10;99.90;;;;;;5073976;28;20025;-73
2023/07/31 07:34:27;;;;;;;1.85;0.70;;;17.10;99.90;;;;;;5074817;28;20032;-73
2023/07/31 07:36:54;;;;;;;1.35;0.68;;;17.10;99.90;;;;;;5072164;28;20027;-74
2023/07/31 07:39:20;;;;;;;1.55;0.70;;;17.10;99.90;;;;;;5075656;28;20032;-73
2023/07/31 07:41:46;;;;;;;3.42;0.73;;;17.10;99.90;;;;;;5075164;28;20032;-72
2023/07/31 07:44:12;;;;;;;2.40;0.90;;;17.10;99.90;;;;;;5089582;28;20463;-74
2023/07/31 07:46:38;;;;;;;1.55;0.80;;;17.10;99.90;;;;;;5077409;28;20064;-71
2023/07/31 07:49:04;;;;;;;2.50;0.82;;;17.10;99.90;;;;;;5077176;28;20436;-74
2023/07/31 07:51:31;;;;;;;3.33;1.10;;;17.10;99.90;;;;;;5092971;28;20028;-73
2023/07/31 07:53:57;;;;;;;5.57;1.52;;;17.10;99.90;;;;;;5092253;28;20085;-73
2023/07/31 07:56:24;;;;;;;2.78;1.48;;;17.10;99.90;;;;;;5070302;28;20016;-73
2023/07/31 07:58:50;;;;;;;2.80;1.27;;;17.20;99.90;;;;;;5071143;28;20108;-73
2023/07/31 08:01:16;;;;;;;2.60;1.60;;;17.20;99.90;;;;;;5078065;28;20037;-74
2023/07/31 08:03:42;;;;;;;4.07;1.70;;;17.20;99.90;;;;;;5069791;28;20087;-73
2023/07/31 08:06:09;;;;;;;3.97;1.58;;;17.20;99.90;;;;;;5074987;28;20056;-73
2023/07/31 08:08:35;;;;;;;4.50;1.42;;;17.30;99.90;;;;;;5089012;28;20027;-73
2023/07/31 08:11:01;;;;;;;2.53;1.63;;;17.30;99.90;;;;;;5078807;28;20163;-73
2023/07/31 08:13:26;;;;;;;4.70;2.13;;;17.30;99.90;;;;;;5089096;28;20032;-73
2023/07/31 08:15:52;;;;;;;4.95;2.35;;;17.30;99.90;;;;;;5085649;28;20080;-73
2023/07/31 08:18:17;;;;;;;3.40;2.65;;;17.30;99.90;;;;;;5085352;28;20039;-73
2023/07/31 08:20:43;;;;;;;3.22;2.47;;;17.20;99.90;;;;;;5078250;28;20032;-74
2023/07/31 08:23:09;;;;;;;4.78;2.90;;;17.20;99.90;;;;;;5081483;28;20024;-73
2023/07/31 08:25:35;;;;;;;5.65;3.25;;;17.20;99.90;;;;;;5072806;28;20081;-73
2023/07/31 08:28:02;;;;;;;6.80;3.67;;;17.20;99.90;;;;;;5087674;28;20031;-73
2023/07/31 08:30:27;;;;;;;5.68;3.78;;;17.20;99.90;;;;;;5079360;28;20032;-73
2023/07/31 08:32:53;;;;;;;4.55;3.28;;;17.20;99.90;;;;;;5079960;28;20032;-73
2023/07/31 08:35:18;;;;;;;4.80;3.72;;;17.30;99.90;;;;;;5083222;28;20542;-73
2023/07/31 08:37:44;;;;;;;5.70;3.28;;;17.30;99.90;;;;;;5086661;28;20038;-73
2023/07/31 08:40:10;;;;;;;4.38;3.85;;;17.40;99.90;;;;;;5096900;28;20055;-73
2023/07/31 08:42:44;;;;;;;7.30;3.58;;;17.40;99.90;;;;;;5098813;28;20498;-72
2023/07/31 08:45:15;;;;;;;6.65;3.30;;;17.40;99.90;;;;;;5103220;28;20552;-73
2023/07/31 08:47:44;;;;;;;5.78;3.95;;;17.40;99.90;;;;;;5059778;28;20058;-74
2023/07/31 08:50:12;;;;;;;6.07;4.03;;;17.40;99.90;;;;;;5061145;28;20045;-72
2023/07/31 08:52:38;;;;;;;6.07;3.70;;;17.40;99.90;;;;;;5082226;28;20025;-72
2023/07/31 08:55:05;;;;;;;4.95;3.95;;;17.40;99.90;;;;;;5054903;28;20089;-73
2023/07/31 08:57:34;;;;;;;5.68;3.35;;;17.40;99.90;;;;;;5078129;28;20013;-71
2023/07/31 09:00:00;;;;;;;6.32;4.07;;;17.40;99.90;;;;;;5078433;28;20046;-72
2023/07/31 09:02:34;;;;;;;4.55;3.65;;;17.40;99.90;;;;;;5077208;28;20056;-73
2023/07/31 09:05:01;;;;;;;5.25;3.63;;;17.40;99.90;;;;;;5076039;28;20397;-72
2023/07/31 09:07:27;;;;;;;5.13;3.70;;;17.40;99.90;;;;;;5081926;28;20029;-72
2023/07/31 09:09:53;;;;;;;7.05;4.13;;;17.40;99.90;;;;;;5082229;28;20437;-73
2023/07/31 09:12:19;;;;;;;6.65;4.28;;;17.40;99.90;;;;;;5079795;28;20459;-72
2023/07/31 09:14:46;;;;;;;6.80;5.03;;;17.40;99.90;;;;;;5089897;28;20032;-74
2023/07/31 09:17:11;;;;;;;6.97;4.18;;;17.40;99.90;;;;;;5066783;28;20031;-72
2023/07/31 09:19:37;;;;;;;5.97;5.20;;;17.40;99.90;;;;;;5091060;28;20028;-73
2023/07/31 09:22:04;;;;;;;6.47;5.15;;;17.50;99.90;;;;;;5046192;28;20387;-73
2023/07/31 09:24:32;;;;;;;6.82;5.00;;;17.50;99.90;;;;;;5079582;28;20103;-72
2023/07/31 09:27:00;;;;;;;8.70;5.43;;;17.50;99.90;;;;;;5087312;28;20028;-72
2023/07/31 09:29:27;;;;;;;7.43;5.32;;;17.50;99.90;;;;;;5073496;28;20039;-73
2023/07/31 09:31:54;;;;;;;7.95;5.82;;;17.50;99.90;;;;;;5082460;28;20085;-73
2023/07/31 09:34:28;;;;;;;7.68;5.55;;;17.50;99.90;;;;;;5100942;28;20050;-72
2023/07/31 09:36:53;;;;;;;9.23;6.53;;;17.50;99.90;;;;;;5086210;28;20077;-72
2023/07/31 09:39:22;;;;;;;9.57;6.80;;;17.50;99.90;;;;;;5083961;28;20031;-74
2023/07/31 09:41:57;;;;;;;10.85;6.20;;;17.50;99.90;;;;;;5099571;28;20028;-73
2023/07/31 09:44:40;;;;;;;8.38;6.88;;;17.60;99.90;;;;;;5087169;28;20646;-73
2023/07/31 09:47:06;;;;;;;10.25;7.32;;;17.60;99.90;;;;;;5078441;28;20024;-72
2023/07/31 09:49:31;;;;;;;11.00;8.32;;;17.60;99.90;;;;;;5089008;28;20024;-72
2023/07/31 09:51:57;;;;;;;13.02;8.48;;;17.70;99.90;;;;;;5071613;28;20403;-73
2023/07/31 09:54:22;;;;;;;9.88;7.68;;;17.70;99.90;;;;;;5086502;28;20051;-73
2023/07/31 09:56:49;;;;;;;11.00;8.70;;;17.80;99.90;;;;;;5053506;28;20025;-73
2023/07/31 09:59:16;;;;;;;17.40;9.05;;;17.80;99.90;;;;;;5077337;28;20028;-72
2023/07/31 10:01:44;;;;;;;12.95;9.98;;;17.80;99.90;;;;;;5077009;28;20037;-73
2023/07/31 10:04:11;;;;;;;11.45;8.52;;;17.80;99.90;;;;;;5071087;28;20032;-73
2023/07/31 10:06:38;;;;;;;11.50;8.90;;;17.90;99.90;;;;;;5075248;28;20082;-71
2023/07/31 10:09:07;;;;;;;11.20;8.52;;;18.00;99.90;;;;;;5074244;28;20462;-70
2023/07/31 10:11:41;;;;;;;13.75;8.85;;;18.00;99.90;;;;;;5084872;28;20034;-73
2023/07/31 10:14:08;;;;;;;12.75;9.05;;;18.20;99.90;;;;;;5089642;28;20033;-73
2023/07/31 10:16:37;;;;;;;10.48;7.53;;;18.40;99.90;;;;;;5106953;28;20027;-73
2023/07/31 10:19:03;;;;;;;11.88;7.68;;;18.60;99.90;;;;;;5088599;28;20024;-73
2023/07/31 10:21:29;;;;;;;14.18;7.32;;;18.80;99.90;;;;;;5105196;28;20031;-73
2023/07/31 10:23:56;;;;;;;11.02;6.50;;;18.90;99.90;;;;;;5095490;28;20365;-73
2023/07/31 10:26:24;;;;;;;11.52;7.68;;;19.10;99.90;;;;;;5105345;28;20035;-73
2023/07/31 10:28:52;;;;;;;9.75;6.45;;;19.20;99.90;;;;;;5082050;28;20494;-73
2023/07/31 10:31:19;;;;;;;10.00;5.97;;;19.30;99.90;;;;;;5073923;28;20032;-73
2023/07/31 10:33:45;;;;;;;9.57;6.28;;;19.40;99.90;;;;;;5110920;28;20092;-73
2023/07/31 10:36:16;;;;;;;10.63;6.10;;;19.40;99.90;;;;;;5090507;28;20111;-73
2023/07/31 10:38:42;;;;;;;9.60;6.18;;;19.50;99.90;;;;;;5085123;28;20519;-73
2023/07/31 10:41:09;;;;;;;8.82;6.07;;;19.60;99.90;;;;;;5073630;28;20067;-73
2023/07/31 10:43:36;;;;;;;11.40;5.57;;;19.60;99.90;;;;;;5075345;28;20186;-74
2023/07/31 10:46:08;;;;;;;8.30;5.28;;;19.70;99.90;;;;;;5054147;28;20028;-73
2023/07/31 10:48:34;;;;;;;8.80;5.40;;;19.70;99.90;;;;;;5061148;28;20430;-73
2023/07/31 10:51:00;;;;;;;7.10;4.97;;;19.60;99.90;;;;;;5060843;28;20024;-71
2023/07/31 10:53:30;;;;;;;9.65;4.97;;;19.60;99.90;;;;;;5065399;28;20460;-71
2023/07/31 10:56:01;;;;;;;7.05;4.28;;;19.50;99.90;;;;;;5068091;28;20028;-71
2023/07/31 10:58:27;;;;;;;8.40;4.00;;;19.50;99.90;;;;;;5074975;28;20064;-73
2023/07/31 11:00:57;;;;;;;7.15;5.20;;;19.50;99.90;;;;;;5081067;28;20519;-72
2023/07/31 11:03:26;;;;;;;9.82;5.65;;;19.40;99.90;;;;;;5090743;28;20052;-71
2023/07/31 11:05:59;;;;;;;6.78;5.10;;;19.30;99.90;;;;;;5086460;28;20024;-72
2023/07/31 11:08:26;;;;;;;10.18;5.32;;;19.20;99.90;;;;;;5084564;28;20099;-72
2023/07/31 11:11:02;;;;;;;8.55;5.03;;;19.10;99.90;;;;;;5072230;28;20458;-71
2023/07/31 11:13:52;;;;;;;7.88;5.18;;;19.10;99.90;;;;;;5070407;28;20047;-72
2023/07/31 11:16:19;;;;;;;8.88;4.25;;;19.10;99.90;;;;;;5066144;28;20062;-72
2023/07/31 11:18:47;;;;;;;8.73;5.45;;;19.00;99.90;;;;;;5070260;28;20098;-71
2023/07/31 11:21:24;;;;;;;4.72;4.10;;;19.00;99.90;;;;;;5071449;28;20162;-71
2023/07/31 11:23:52;;;;;;;6.15;4.38;;;19.00;99.90;;;;;;5084481;28;20019;-72
2023/07/31 11:26:18;;;;;;;6.75;4.20;;;19.00;99.90;;;;;;5064035;28;20024;-71
2023/07/31 11:28:47;;;;;;;6.53;4.15;;;19.00;99.90;;;;;;5069478;28;20029;-71
2023/07/31 11:31:13;;;;;;;6.20;4.28;;;19.10;99.90;;;;;;5090431;28;20020;-73
2023/07/31 11:33:38;;;;;;;6.43;4.03;;;19.00;99.90;;;;;;5090176;28;20098;-73
2023/07/31 11:36:04;;;;;;;11.80;4.25;;;19.10;99.90;;;;;;5083328;28;20498;-74
2023/07/31 11:38:34;;;;;;;4.97;3.47;;;19.10;99.90;;;;;;5077258;28;20093;-73
2023/07/31 11:41:04;;;;;;;10.32;4.95;;;19.10;99.90;;;;;;5081058;28;20047;-71
2023/07/31 11:43:31;;;;;;;6.82;4.40;;;19.20;99.90;;;;;;5056581;28;20024;-72
2023/07/31 11:45:58;;;;;;;11.48;4.43;;;19.20;99.90;;;;;;5086569;28;20039;-71
2023/07/31 11:48:27;;;;;;;6.00;3.67;;;19.30;99.90;;;;;;5064505;28;20028;-72
2023/07/31 11:50:54;;;;;;;7.05;4.00;;;19.30;99.90;;;;;;5067918;28;20013;-72
2023/07/31 11:53:27;;;;;;;6.65;3.55;;;19.40;99.90;;;;;;5086304;28;20107;-71
2023/07/31 11:55:54;;;;;;;6.70;3.97;;;19.50;99.90;;;;;;5084314;28;20109;-73
2023/07/31 11:58:20;;;;;;;7.72;4.63;;;19.60;99.90;;;;;;5080412;28;20086;-73
2023/07/31 12:00:46;;;;;;;6.50;4.22;;;19.60;99.90;;;;;;5082543;28;20032;-72
2023/07/31 12:03:12;;;;;;;11.05;4.32;;;19.60;99.90;;;;;;5083617;28;20550;-72
2023/07/31 12:05:38;;;;;;;8.88;3.97;;;19.60;99.90;;;;;;5087491;28;20408;-72
2023/07/31 12:08:10;;;;;;;8.88;4.10;;;19.60;99.90;;;;;;5081403;28;20031;-73
2023/07/31 12:10:36;;;;;;;6.75;4.15;;;19.60;99.90;;;;;;5072805;28;20034;-73
2023/07/31 12:13:19;;;;;;;8.45;4.57;;;19.60;99.90;;;;;;5080424;28;20166;-73
2023/07/31 12:15:45;;;;;;;8.07;5.00;;;19.60;99.90;;;;;;5077235;28;20059;-72
2023/07/31 12:18:15;;;;;;;7.55;4.72;;;19.40;99.90;;;;;;5077931;28;20400;-73
2023/07/31 12:20:58;;;;;;;8.48;4.75;;;19.40;99.90;;;;;;5095215;28;20041;-73
2023/07/31 12:23:29;;;;;;;6.65;4.57;;;19.30;99.90;;;;;;5101974;28;20020;-73
2023/07/31 12:26:15;;;;;;;7.55;4.88;;;19.20;99.90;;;;;;5094350;28;20021;-73
2023/07/31 12:28:45;;;;;;;6.43;4.45;;;19.20;99.90;;;;;;5094650;28;20033;-72
2023/07/31 12:31:13;;;;;;;8.40;4.55;;;19.10;99.90;;;;;;5085950;28;20036;-73
2023/07/31 12:33:40;;;;;;;8.43;5.43;;;19.00;99.90;;;;;;5094282;28;20396;-73
2023/07/31 12:36:14;;;;;;;7.82;5.95;;;19.00;99.90;;;;;;5083852;28;20020;-73
2023/07/31 12:38:40;;;;;;;9.13;5.93;;;19.10;99.90;;;;;;5073944;28;20025;-70